createdAt,value
2023-01-15T00:01:33.113Z,20.60
2023-01-15T00:04:22.386Z,19.77
2023-01-15T00:06:58.908Z,19.53
2023-01-15T00:09:41.197Z,21.20
2023-01-15T00:12:31.384Z,18.80
2023-01-15T00:15:02.014Z,20.25
2023-01-15T00:17:38.796Z,17.65
2023-01-15T00:20:20.849Z,17.80
2023-01-15T00:22:54.213Z,15.80
2023-01-15T00:25:54.009Z,17.15
2023-01-15T00:28:25.825Z,17.92
2023-01-15T00:30:58.598Z,20.95
2023-01-15T00:33:56.464Z,18.60
2023-01-15T00:36:31.624Z,18.17
2023-01-15T00:39:18.635Z,19.33
2023-01-15T00:41:50.569Z,15.33
2023-01-15T00:44:22.852Z,16.90
2023-01-15T00:46:58.497Z,17.03
2023-01-15T00:49:30.685Z,16.00
2023-01-15T00:52:15.811Z,18.23
2023-01-15T00:55:16.157Z,13.87
2023-01-15T00:58:06.413Z,16.23
2023-01-15T01:00:50.198Z,15.33
2023-01-15T01:03:34.642Z,14.32
2023-01-15T01:10:22.877Z,13.60
2023-01-15T01:13:00.239Z,14.60
2023-01-15T01:16:24.596Z,16.47
2023-01-15T01:19:34.848Z,9.47
2023-01-15T01:25:30.752Z,17.23
2023-01-15T01:28:05.642Z,12.13
2023-01-15T01:30:42.495Z,16.23
2023-01-15T01:33:27.514Z,14.97
2023-01-15T01:36:28.632Z,13.90
2023-01-15T01:39:13.302Z,16.67
2023-01-15T01:41:56.740Z,11.90
2023-01-15T01:45:03.643Z,15.50
2023-01-15T01:47:35.742Z,10.83
2023-01-15T01:50:09.814Z,17.23
2023-01-15T01:52:45.780Z,11.87
2023-01-15T01:55:43.589Z,13.48
2023-01-15T01:58:49.453Z,15.77
2023-01-15T02:01:20.956Z,12.47
2023-01-15T02:03:54.671Z,12.63
2023-01-15T02:06:47.936Z,11.77
2023-01-15T02:09:24.165Z,12.57
2023-01-15T02:12:18.713Z,11.07
2023-01-15T02:15:06.055Z,13.60
2023-01-15T02:17:58.817Z,12.23
2023-01-15T02:20:52.039Z,13.83
2023-01-15T02:24:19.610Z,14.20
2023-01-15T02:27:36.071Z,13.50
2023-01-15T02:30:32.583Z,12.93
2023-01-15T02:33:36.097Z,15.47
2023-01-15T02:36:24.576Z,14.77
2023-01-15T02:39:28.350Z,16.30
2023-01-15T02:42:26.865Z,15.33
2023-01-15T02:45:03.958Z,16.83
2023-01-15T02:47:44.279Z,14.23
2023-01-15T02:50:21.384Z,14.53
2023-01-15T02:53:01.678Z,13.30
2023-01-15T02:55:38.142Z,15.97
2023-01-15T02:58:21.303Z,13.93
2023-01-15T03:00:56.208Z,14.20
2023-01-15T03:03:51.769Z,15.57
2023-01-15T03:07:05.149Z,16.77
2023-01-15T03:09:49.088Z,16.13
2023-01-15T03:12:24.479Z,14.03
2023-01-15T03:15:34.698Z,16.57
2023-01-15T03:18:09.870Z,17.23
2023-01-15T03:20:59.033Z,17.47
2023-01-15T03:24:02.534Z,13.93
2023-01-15T03:26:31.411Z,16.20
2023-01-15T03:29:17.810Z,15.60
2023-01-15T03:32:03.169Z,16.73
2023-01-15T03:35:04.058Z,15.43
2023-01-15T03:40:52.537Z,12.77
2023-01-15T03:43:56.414Z,14.73
2023-01-15T03:46:50.857Z,11.57
2023-01-15T03:50:25.341Z,12.57
2023-01-15T03:55:11.956Z,11.17
2023-01-15T03:57:11.927Z,13.23
2023-01-15T04:00:11.321Z,10.27
2023-01-15T04:03:13.861Z,14.07
2023-01-15T04:06:09.853Z,10.97
2023-01-15T04:09:02.728Z,13.43
2023-01-15T04:12:10.652Z,10.23
2023-01-15T04:15:30.005Z,14.13
2023-01-15T04:18:34.206Z,10.67
2023-01-15T04:21:11.066Z,7.82
2023-01-15T04:24:02.991Z,10.63
2023-01-15T04:30:07.709Z,12.80
2023-01-15T04:32:59.953Z,11.57
2023-01-15T04:36:18.573Z,10.07
2023-01-15T04:39:35.469Z,8.75
2023-01-15T04:42:37.589Z,9.47
2023-01-15T04:45:40.297Z,8.43
2023-01-15T04:48:47.807Z,8.40
2023-01-15T04:51:31.533Z,7.57
2023-01-15T04:54:50.451Z,8.60
2023-01-15T04:57:28.512Z,8.80
2023-01-15T05:00:01.165Z,9.77
2023-01-15T05:02:45.202Z,7.30
2023-01-15T05:05:53.967Z,7.40
2023-01-15T05:08:58.397Z,9.53
2023-01-15T05:12:04.520Z,8.77
2023-01-15T05:14:59.797Z,6.90
2023-01-15T05:17:43.106Z,6.35
2023-01-15T05:20:57.535Z,7.87
2023-01-15T05:23:40.129Z,7.60
2023-01-15T05:26:21.659Z,6.17
2023-01-15T05:29:24.936Z,6.40
2023-01-15T05:31:58.655Z,7.60
2023-01-15T05:35:10.511Z,7.90
2023-01-15T05:38:20.412Z,6.80
2023-01-15T05:41:50.457Z,6.50
2023-01-15T05:44:46.168Z,6.43
2023-01-15T05:47:28.423Z,4.83
2023-01-15T06:06:57.749Z,6.80
2023-01-15T06:10:17.647Z,5.23
2023-01-15T06:13:23.789Z,7.90
2023-01-15T06:17:17.423Z,7.47
2023-01-15T06:20:11.467Z,5.73
2023-01-15T06:22:46.053Z,4.80
2023-01-15T06:25:28.530Z,5.00
2023-01-15T06:28:04.569Z,4.67
2023-01-15T06:31:33.969Z,4.23
2023-01-15T06:34:01.346Z,5.53
2023-01-15T06:40:59.934Z,5.43
2023-01-15T06:44:20.200Z,5.13
2023-01-15T06:47:50.597Z,5.20
2023-01-15T06:54:10.127Z,4.37
2023-01-15T06:57:05.315Z,4.20
2023-01-15T07:00:13.350Z,3.43
2023-01-15T07:20:51.019Z,5.53
2023-01-15T07:23:32.599Z,5.07
2023-01-15T07:26:07.577Z,3.73
2023-01-15T07:28:56.347Z,7.37
2023-01-15T07:31:45.260Z,5.97
2023-01-15T07:34:22.304Z,6.27
2023-01-15T07:37:01.978Z,4.77
2023-01-15T07:39:38.262Z,4.80
2023-01-15T07:43:08.035Z,3.97
2023-01-15T07:47:20.212Z,7.07
2023-01-15T07:50:37.097Z,5.40
2023-01-15T07:55:06.218Z,4.83
2023-01-15T07:57:57.915Z,7.43
2023-01-15T09:10:56.776Z,6.90
2023-01-15T09:17:56.134Z,6.87
2023-01-15T09:20:48.351Z,8.20
2023-01-15T09:26:58.293Z,7.70
2023-01-15T09:30:33.879Z,10.87
2023-01-15T09:33:41.045Z,8.80
2023-01-15T09:36:22.920Z,6.87
2023-01-15T09:38:56.538Z,7.13
2023-01-15T09:41:50.889Z,6.27
2023-01-15T09:44:41.195Z,7.03
2023-01-15T09:47:25.157Z,8.07
2023-01-15T09:50:17.332Z,8.35
2023-01-15T09:53:06.108Z,8.13
2023-01-15T09:55:41.581Z,8.87
2023-01-15T09:58:13.094Z,8.50
2023-01-15T10:00:45.453Z,8.03
2023-01-15T10:03:32.196Z,7.30
2023-01-15T10:06:10.454Z,6.23
2023-01-15T10:08:42.374Z,9.05
2023-01-15T10:11:49.599Z,7.17
2023-01-15T10:14:32.609Z,8.07
2023-01-15T10:17:01.204Z,9.50
2023-01-15T10:19:40.352Z,8.63
2023-01-15T10:22:27.879Z,8.30
2023-01-15T10:25:06.897Z,9.63
2023-01-15T10:27:36.721Z,10.17
2023-01-15T10:30:12.652Z,9.10
2023-01-15T10:33:01.430Z,8.73
2023-01-15T10:35:42.871Z,11.90
2023-01-15T10:38:35.569Z,8.75
2023-01-15T10:41:38.045Z,8.73
2023-01-15T10:44:21.026Z,20.10
2023-01-15T10:47:00.319Z,9.63
2023-01-15T10:49:45.344Z,10.68
2023-01-15T10:52:28.099Z,9.47
2023-01-15T10:55:12.578Z,10.53
2023-01-15T10:58:01.885Z,13.57
2023-01-15T11:00:42.785Z,10.50
2023-01-15T11:03:51.459Z,8.93
2023-01-15T11:06:39.152Z,10.20
2023-01-15T11:09:12.447Z,11.17
2023-01-15T11:12:05.588Z,12.90
2023-01-15T11:14:57.572Z,10.10
2023-01-15T11:17:59.688Z,11.43
2023-01-15T11:20:40.701Z,15.37
2023-01-15T11:23:16.488Z,12.03
2023-01-15T11:25:54.080Z,10.43
2023-01-15T11:28:37.538Z,14.67
2023-01-15T11:31:06.764Z,11.15
2023-01-15T11:33:40.112Z,12.83
2023-01-15T11:36:31.464Z,13.90
2023-01-15T11:39:03.368Z,11.27
2023-01-15T11:41:52.442Z,12.80
2023-01-15T11:44:42.088Z,10.50
2023-01-15T11:47:30.680Z,14.80
2023-01-15T11:50:33.574Z,12.57
2023-01-15T11:53:02.328Z,13.87
2023-01-15T11:55:32.411Z,13.93
2023-01-15T11:58:02.413Z,11.80
2023-01-15T12:00:44.528Z,11.00
2023-01-15T12:03:18.941Z,12.50
2023-01-15T12:05:58.893Z,15.03
2023-01-15T12:08:44.895Z,12.23
2023-01-15T12:11:37.217Z,12.32
2023-01-15T12:14:38.508Z,14.23
2023-01-15T12:17:23.348Z,15.37
2023-01-15T12:20:05.155Z,14.38
2023-01-15T12:22:58.864Z,17.80
2023-01-15T12:25:53.403Z,25.07
2023-01-15T12:28:49.813Z,38.50
2023-01-15T12:31:32.190Z,23.97
2023-01-15T12:34:42.581Z,22.90
2023-01-15T13:07:21.923Z,14.68
2023-01-15T13:11:30.619Z,18.33
2023-01-15T13:18:32.490Z,17.02
2023-01-15T13:22:09.015Z,19.75
2023-01-15T13:25:35.569Z,18.13
2023-01-15T13:28:30.063Z,13.57
2023-01-15T13:35:47.830Z,17.70
2023-01-15T13:38:55.029Z,16.50
2023-01-15T13:46:18.576Z,19.30
2023-01-15T13:52:30.375Z,18.07
2023-01-15T13:58:56.272Z,19.55
2023-01-15T14:02:28.041Z,16.38
2023-01-15T14:05:36.865Z,18.20
2023-01-15T14:08:19.505Z,16.85
2023-01-15T14:11:11.618Z,17.70
2023-01-15T14:14:34.649Z,48.03
2023-01-15T14:17:57.717Z,21.27
2023-01-15T14:20:43.013Z,17.30
2023-01-15T14:23:36.331Z,17.00
2023-01-15T14:26:50.455Z,15.73
2023-01-15T14:30:24.126Z,16.70
2023-01-15T14:33:35.452Z,18.52
2023-01-15T14:36:41.507Z,19.30
2023-01-15T14:43:16.475Z,18.77
2023-01-15T14:46:39.812Z,31.23
2023-01-15T14:53:52.709Z,15.48
2023-01-15T15:00:22.772Z,21.02
2023-01-15T15:03:44.729Z,20.10
2023-01-15T15:06:45.194Z,20.10
2023-01-15T15:12:46.357Z,20.70
2023-01-15T15:24:09.443Z,17.07
2023-01-15T15:31:45.554Z,20.10
2023-01-15T15:34:57.371Z,16.63
2023-01-15T15:37:44.928Z,15.90
2023-01-15T15:41:23.997Z,18.58
2023-01-15T15:44:59.654Z,17.98
2023-01-15T15:48:37.695Z,17.63
2023-01-15T15:52:49.380Z,16.45
2023-01-15T15:55:18.785Z,17.42
2023-01-15T16:35:18.083Z,18.80
2023-01-15T16:37:57.755Z,20.35
2023-01-15T16:41:28.935Z,19.60
2023-01-15T16:44:37.860Z,15.93
2023-01-15T16:48:00.029Z,17.90
2023-01-15T16:51:08.980Z,18.85
2023-01-15T16:54:07.415Z,24.85
2023-01-15T16:56:54.390Z,24.58
2023-01-15T16:59:56.798Z,59.08
2023-01-15T17:02:37.068Z,39.47
2023-01-15T17:05:26.882Z,47.30
2023-01-15T17:07:59.568Z,37.95
2023-01-15T17:10:31.530Z,25.88
2023-01-15T17:13:01.546Z,25.42
2023-01-15T17:15:43.856Z,21.30
2023-01-15T17:18:29.593Z,24.70
2023-01-15T17:21:01.185Z,18.27
2023-01-15T17:23:39.046Z,18.60
2023-01-15T17:26:08.714Z,13.90
2023-01-15T17:28:38.458Z,16.55
2023-01-15T17:31:07.274Z,17.15
2023-01-15T17:33:53.312Z,25.75
2023-01-15T17:36:29.413Z,15.63
2023-01-15T17:39:02.236Z,17.50
2023-01-15T17:41:38.728Z,22.38
2023-01-15T17:44:08.696Z,21.27
2023-01-15T17:46:37.436Z,16.27
2023-01-15T17:49:09.449Z,16.08
2023-01-15T17:51:44.514Z,25.42
2023-01-15T17:54:37.536Z,27.73
2023-01-15T17:57:23.554Z,27.52
2023-01-15T18:00:09.124Z,22.88
2023-01-15T18:02:58.649Z,18.50
2023-01-15T18:05:37.086Z,20.77
2023-01-15T18:08:12.591Z,18.38
2023-01-15T18:10:42.726Z,15.13
2023-01-15T18:13:13.056Z,17.92
2023-01-15T18:15:42.210Z,18.80
2023-01-15T18:18:11.914Z,17.02
2023-01-15T18:20:41.457Z,15.88
2023-01-15T18:23:10.763Z,17.13
2023-01-15T18:25:46.349Z,23.17
2023-01-15T18:28:19.206Z,24.25
2023-01-15T18:30:51.796Z,24.90
2023-01-15T18:33:20.451Z,23.60
2023-01-15T18:36:06.061Z,20.92
2023-01-15T18:38:37.964Z,23.05
2023-01-15T18:41:12.120Z,25.77
2023-01-15T18:43:59.517Z,31.77
2023-01-15T18:46:46.099Z,26.88
2023-01-15T18:49:19.458Z,28.45
2023-01-15T18:52:19.640Z,41.50
2023-01-15T18:54:48.273Z,31.77
2023-01-15T18:57:18.157Z,40.10
2023-01-15T18:59:50.935Z,29.40
2023-01-15T19:02:21.024Z,31.58
2023-01-15T19:04:50.201Z,26.48
2023-01-15T19:07:23.000Z,24.02
2023-01-15T19:09:53.717Z,31.13
2023-01-15T19:12:25.169Z,25.52
2023-01-15T19:15:24.162Z,16.23
2023-01-15T19:18:10.198Z,17.55
2023-01-15T19:20:47.015Z,12.45
2023-01-15T19:23:27.996Z,14.55
2023-01-15T19:26:10.888Z,22.83
2023-01-15T19:28:50.359Z,17.20
2023-01-15T19:31:40.660Z,25.80
2023-01-15T19:34:35.798Z,23.73
2023-01-15T19:37:29.419Z,25.95
2023-01-15T19:40:09.782Z,22.83
2023-01-15T19:48:22.877Z,18.05
2023-01-15T19:50:58.076Z,23.40
2023-01-15T19:54:40.405Z,28.30
2023-01-15T19:58:40.340Z,48.70
2023-01-15T20:02:01.207Z,31.90
2023-01-15T20:04:28.482Z,23.33
2023-01-15T20:10:32.330Z,23.30
2023-01-15T20:13:51.602Z,28.10
2023-01-15T20:16:36.948Z,24.42
2023-01-15T20:19:19.135Z,19.65
2023-01-15T20:22:12.133Z,24.42
2023-01-15T20:25:20.310Z,24.63
2023-01-15T20:27:54.718Z,37.83
2023-01-15T20:30:40.505Z,39.03
2023-01-15T20:33:20.460Z,16.17
2023-01-15T20:36:19.356Z,15.88
2023-01-15T20:38:49.271Z,23.63
2023-01-15T20:41:36.555Z,19.10
2023-01-15T20:44:25.218Z,17.40
2023-01-15T20:47:21.319Z,17.33
2023-01-15T20:49:52.079Z,68.80
2023-01-15T20:55:18.669Z,21.75
2023-01-15T20:58:07.002Z,19.02
2023-01-15T21:00:53.624Z,28.60
2023-01-15T21:03:44.747Z,25.45
2023-01-15T21:06:21.111Z,19.27
2023-01-15T21:08:59.262Z,14.80
2023-01-15T21:11:48.479Z,12.55
2023-01-15T21:14:58.889Z,15.18
2023-01-15T21:18:12.535Z,18.67
2023-01-15T21:21:29.329Z,23.67
2023-01-15T21:25:03.313Z,19.70
2023-01-15T21:27:51.262Z,23.55
2023-01-15T21:31:02.106Z,19.65
2023-01-15T21:33:57.531Z,18.17
2023-01-15T21:36:34.574Z,16.75
2023-01-15T21:39:51.180Z,23.50
2023-01-15T21:46:32.768Z,28.63
2023-01-15T21:50:40.673Z,18.63
2023-01-15T21:53:34.723Z,22.83
2023-01-15T21:56:20.940Z,19.35
2023-01-15T21:59:51.408Z,22.00
2023-01-15T22:06:14.741Z,15.55
2023-01-15T22:09:05.281Z,18.23
2023-01-15T22:12:17.118Z,15.90
2023-01-15T22:15:39.874Z,17.27
2023-01-15T22:26:20.543Z,15.43
2023-01-15T22:44:14.694Z,8.95
2023-01-15T22:51:03.731Z,10.97
2023-01-15T23:53:34.210Z,8.23
2023-01-15T23:57:03.085Z,7.63
